sensor_id;sensor_type;location;lat;lon;timestamp;P1;durP1;ratioP1;P2;durP2;ratioP2
77262;SDS011;66373;52.334;4.806;2023-04-24T00:01:07;8.23;;;3.92;;
77262;SDS011;66373;52.334;4.806;2023-04-24T00:03:34;3.83;;;2.45;;
77262;SDS011;66373;52.334;4.806;2023-04-24T00:06:02;4.75;;;3.58;;
77262;SDS011;66373;52.334;4.806;2023-04-24T00:08:29;6.47;;;3.30;;
77262;SDS011;66373;52.334;4.806;2023-04-24T00:10:56;5.10;;;3.25;;
77262;SDS011;66373;52.334;4.806;2023-04-24T00:13:26;4.15;;;3.47;;
77262;SDS011;66373;52.334;4.806;2023-04-24T00:15:53;3.80;;;3.30;;
77262;SDS011;66373;52.334;4.806;2023-04-24T00:18:20;4.25;;;3.45;;
77262;SDS011;66373;52.334;4.806;2023-04-24T00:20:47;3.85;;;3.42;;
77262;SDS011;66373;52.334;4.806;2023-04-24T00:23:15;6.00;;;3.78;;
77262;SDS011;66373;52.334;4.806;2023-04-24T00:25:42;4.00;;;3.38;;
77262;SDS011;66373;52.334;4.806;2023-04-24T00:28:09;4.15;;;3.40;;
77262;SDS011;66373;52.334;4.806;2023-04-24T00:30:37;3.80;;;3.40;;
77262;SDS011;66373;52.334;4.806;2023-04-24T00:33:04;4.07;;;3.10;;
77262;SDS011;66373;52.334;4.806;2023-04-24T00:35:31;3.65;;;3.35;;
77262;SDS011;66373;52.334;4.806;2023-04-24T00:37:58;4.90;;;3.50;;
77262;SDS011;66373;52.334;4.806;2023-04-24T00:40:27;4.32;;;3.60;;
77262;SDS011;66373;52.334;4.806;2023-04-24T00:42:55;4.53;;;3.40;;
77262;SDS011;66373;52.334;4.806;2023-04-24T00:45:22;4.53;;;3.38;;
77262;SDS011;66373;52.334;4.806;2023-04-24T00:47:51;5.65;;;3.38;;
77262;SDS011;66373;52.334;4.806;2023-04-24T00:50:20;3.95;;;3.47;;
77262;SDS011;66373;52.334;4.806;2023-04-24T00:52:47;4.15;;;3.30;;
77262;SDS011;66373;52.334;4.806;2023-04-24T00:55:14;4.53;;;3.58;;
77262;SDS011;66373;52.334;4.806;2023-04-24T00:57:42;4.28;;;3.38;;
77262;SDS011;66373;52.334;4.806;2023-04-24T01:00:10;3.47;;;3.17;;
77262;SDS011;66373;52.334;4.806;2023-04-24T01:02:38;3.90;;;3.50;;
77262;SDS011;66373;52.334;4.806;2023-04-24T01:05:11;3.55;;;3.22;;
77262;SDS011;66373;52.334;4.806;2023-04-24T01:07:39;3.45;;;3.15;;
77262;SDS011;66373;52.334;4.806;2023-04-24T01:10:09;5.45;;;3.13;;
77262;SDS011;66373;52.334;4.806;2023-04-24T01:12:36;4.93;;;3.00;;
77262;SDS011;66373;52.334;4.806;2023-04-24T01:15:04;3.83;;;3.47;;
77262;SDS011;66373;52.334;4.806;2023-04-24T01:17:31;3.75;;;3.08;;
77262;SDS011;66373;52.334;4.806;2023-04-24T01:19:59;3.05;;;2.75;;
77262;SDS011;66373;52.334;4.806;2023-04-24T01:22:27;6.32;;;3.00;;
77262;SDS011;66373;52.334;4.806;2023-04-24T01:24:54;4.95;;;3.40;;
77262;SDS011;66373;52.334;4.806;2023-04-24T01:27:21;3.65;;;3.35;;
77262;SDS011;66373;52.334;4.806;2023-04-24T01:29:48;4.47;;;3.03;;
77262;SDS011;66373;52.334;4.806;2023-04-24T01:32:17;3.20;;;2.88;;
77262;SDS011;66373;52.334;4.806;2023-04-24T01:34:45;3.30;;;3.00;;
77262;SDS011;66373;52.334;4.806;2023-04-24T01:37:13;3.47;;;3.10;;
77262;SDS011;66373;52.334;4.806;2023-04-24T01:39:42;3.22;;;2.92;;
77262;SDS011;66373;52.334;4.806;2023-04-24T01:42:09;3.65;;;2.67;;
77262;SDS011;66373;52.334;4.806;2023-04-24T01:44:36;4.53;;;3.00;;
77262;SDS011;66373;52.334;4.806;2023-04-24T01:47:04;3.60;;;2.90;;
77262;SDS011;66373;52.334;4.806;2023-04-24T01:49:32;3.67;;;2.95;;
77262;SDS011;66373;52.334;4.806;2023-04-24T01:52:00;3.75;;;2.92;;
77262;SDS011;66373;52.334;4.806;2023-04-24T01:54:29;3.67;;;2.83;;
77262;SDS011;66373;52.334;4.806;2023-04-24T01:56:58;2.80;;;2.60;;
77262;SDS011;66373;52.334;4.806;2023-04-24T01:59:27;3.22;;;2.92;;
77262;SDS011;66373;52.334;4.806;2023-04-24T02:01:55;3.35;;;3.05;;
77262;SDS011;66373;52.334;4.806;2023-04-24T02:04:22;3.28;;;2.97;;
77262;SDS011;66373;52.334;4.806;2023-04-24T02:06:48;3.85;;;2.88;;
77262;SDS011;66373;52.334;4.806;2023-04-24T02:09:15;2.88;;;2.67;;
77262;SDS011;66373;52.334;4.806;2023-04-24T02:11:43;3.13;;;2.92;;
77262;SDS011;66373;52.334;4.806;2023-04-24T02:14:11;3.28;;;2.80;;
77262;SDS011;66373;52.334;4.806;2023-04-24T02:16:39;4.13;;;3.20;;
77262;SDS011;66373;52.334;4.806;2023-04-24T02:19:06;2.75;;;2.50;;
77262;SDS011;66373;52.334;4.806;2023-04-24T02:21:33;3.15;;;2.85;;
77262;SDS011;66373;52.334;4.806;2023-04-24T02:24:00;3.33;;;2.90;;
77262;SDS011;66373;52.334;4.806;2023-04-24T02:26:27;4.05;;;2.90;;
77262;SDS011;66373;52.334;4.806;2023-04-24T02:28:57;2.75;;;2.42;;
77262;SDS011;66373;52.334;4.806;2023-04-24T02:31:25;2.60;;;2.40;;
77262;SDS011;66373;52.334;4.806;2023-04-24T02:33:52;2.53;;;2.33;;
77262;SDS011;66373;52.334;4.806;2023-04-24T02:36:19;2.95;;;2.75;;
77262;SDS011;66373;52.334;4.806;2023-04-24T02:38:47;2.97;;;2.67;;
77262;SDS011;66373;52.334;4.806;2023-04-24T02:41:14;3.05;;;2.67;;
77262;SDS011;66373;52.334;4.806;2023-04-24T02:43:41;2.78;;;2.40;;
77262;SDS011;66373;52.334;4.806;2023-04-24T02:46:08;2.92;;;2.72;;
77262;SDS011;66373;52.334;4.806;2023-04-24T02:48:37;2.97;;;2.78;;
77262;SDS011;66373;52.334;4.806;2023-04-24T02:51:05;2.75;;;2.55;;
77262;SDS011;66373;52.334;4.806;2023-04-24T02:53:33;2.83;;;2.63;;
77262;SDS011;66373;52.334;4.806;2023-04-24T02:55:59;3.08;;;2.78;;
77262;SDS011;66373;52.334;4.806;2023-04-24T02:58:27;2.58;;;2.38;;
77262;SDS011;66373;52.334;4.806;2023-04-24T03:00:54;2.38;;;2.17;;
77262;SDS011;66373;52.334;4.806;2023-04-24T03:03:21;2.60;;;2.40;;
77262;SDS011;66373;52.334;4.806;2023-04-24T03:05:51;2.40;;;2.20;;
77262;SDS011;66373;52.334;4.806;2023-04-24T03:08:18;3.33;;;2.60;;
77262;SDS011;66373;52.334;4.806;2023-04-24T03:10:45;2.53;;;2.33;;
77262;SDS011;66373;52.334;4.806;2023-04-24T03:13:14;2.67;;;2.35;;
77262;SDS011;66373;52.334;4.806;2023-04-24T03:15:42;2.60;;;2.40;;
77262;SDS011;66373;52.334;4.806;2023-04-24T03:18:09;2.60;;;2.40;;
77262;SDS011;66373;52.334;4.806;2023-04-24T03:20:36;2.80;;;2.60;;
77262;SDS011;66373;52.334;4.806;2023-04-24T03:23:04;2.70;;;2.50;;
77262;SDS011;66373;52.334;4.806;2023-04-24T03:25:31;2.80;;;2.60;;
77262;SDS011;66373;52.334;4.806;2023-04-24T03:27:59;2.38;;;2.20;;
77262;SDS011;66373;52.334;4.806;2023-04-24T03:30:34;2.58;;;2.38;;
77262;SDS011;66373;52.334;4.806;2023-04-24T03:33:02;3.55;;;2.25;;
77262;SDS011;66373;52.334;4.806;2023-04-24T03:35:33;2.72;;;2.53;;
77262;SDS011;66373;52.334;4.806;2023-04-24T03:38:07;2.10;;;2.00;;
77262;SDS011;66373;52.334;4.806;2023-04-24T03:41:12;2.13;;;2.03;;
77262;SDS011;66373;52.334;4.806;2023-04-24T03:43:49;2.28;;;2.10;;
77262;SDS011;66373;52.334;4.806;2023-04-24T03:46:16;2.22;;;2.03;;
77262;SDS011;66373;52.334;4.806;2023-04-24T03:48:57;2.10;;;2.00;;
77262;SDS011;66373;52.334;4.806;2023-04-24T03:51:28;2.22;;;2.10;;
77262;SDS011;66373;52.334;4.806;2023-04-24T03:54:04;2.22;;;2.00;;
77262;SDS011;66373;52.334;4.806;2023-04-24T03:56:34;2.25;;;2.10;;
77262;SDS011;66373;52.334;4.806;2023-04-24T03:59:01;2.35;;;2.10;;
77262;SDS011;66373;52.334;4.806;2023-04-24T04:01:29;2.22;;;2.13;;
77262;SDS011;66373;52.334;4.806;2023-04-24T04:04:04;2.40;;;2.20;;
77262;SDS011;66373;52.334;4.806;2023-04-24T04:06:31;3.40;;;2.13;;
77262;SDS011;66373;52.334;4.806;2023-04-24T04:09:00;2.30;;;2.10;;
77262;SDS011;66373;52.334;4.806;2023-04-24T04:11:29;2.05;;;1.95;;
77262;SDS011;66373;52.334;4.806;2023-04-24T04:13:56;2.20;;;2.00;;
77262;SDS011;66373;52.334;4.806;2023-04-24T04:16:24;2.20;;;2.00;;
77262;SDS011;66373;52.334;4.806;2023-04-24T04:18:56;1.95;;;1.85;;
77262;SDS011;66373;52.334;4.806;2023-04-24T04:21:23;2.58;;;2.17;;
77262;SDS011;66373;52.334;4.806;2023-04-24T04:23:56;2.03;;;1.92;;
77262;SDS011;66373;52.334;4.806;2023-04-24T04:26:31;2.13;;;1.92;;
77262;SDS011;66373;52.334;4.806;2023-04-24T04:29:04;2.03;;;1.92;;
77262;SDS011;66373;52.334;4.806;2023-04-24T04:31:34;1.90;;;1.80;;
77262;SDS011;66373;52.334;4.806;2023-04-24T04:34:06;1.77;;;1.67;;
77262;SDS011;66373;52.334;4.806;2023-04-24T04:36:34;2.13;;;1.92;;
77262;SDS011;66373;52.334;4.806;2023-04-24T04:39:15;2.20;;;2.10;;
77262;SDS011;66373;52.334;4.806;2023-04-24T04:41:53;2.15;;;1.95;;
77262;SDS011;66373;52.334;4.806;2023-04-24T04:44:24;1.95;;;1.85;;
77262;SDS011;66373;52.334;4.806;2023-04-24T04:46:53;2.08;;;1.95;;
77262;SDS011;66373;52.334;4.806;2023-04-24T04:49:27;1.80;;;1.70;;
77262;SDS011;66373;52.334;4.806;2023-04-24T04:51:55;1.70;;;1.60;;
77262;SDS011;66373;52.334;4.806;2023-04-24T04:54:24;2.20;;;2.10;;
77262;SDS011;66373;52.334;4.806;2023-04-24T04:56:54;2.30;;;2.10;;
77262;SDS011;66373;52.334;4.806;2023-04-24T04:59:23;1.60;;;1.58;;
77262;SDS011;66373;52.334;4.806;2023-04-24T05:01:56;1.90;;;1.80;;
77262;SDS011;66373;52.334;4.806;2023-04-24T05:04:23;1.75;;;1.65;;
77262;SDS011;66373;52.334;4.806;2023-04-24T05:06:51;2.00;;;1.90;;
77262;SDS011;66373;52.334;4.806;2023-04-24T05:09:20;1.80;;;1.60;;
77262;SDS011;66373;52.334;4.806;2023-04-24T05:11:55;1.50;;;1.50;;
77262;SDS011;66373;52.334;4.806;2023-04-24T05:14:24;1.85;;;1.75;;
77262;SDS011;66373;52.334;4.806;2023-04-24T05:16:51;1.67;;;1.58;;
77262;SDS011;66373;52.334;4.806;2023-04-24T05:19:22;1.70;;;1.60;;
77262;SDS011;66373;52.334;4.806;2023-04-24T05:21:49;1.80;;;1.70;;
77262;SDS011;66373;52.334;4.806;2023-04-24T05:24:16;1.60;;;1.50;;
77262;SDS011;66373;52.334;4.806;2023-04-24T05:27:09;2.70;;;1.88;;
77262;SDS011;66373;52.334;4.806;2023-04-24T05:29:39;1.80;;;1.70;;
77262;SDS011;66373;52.334;4.806;2023-04-24T05:32:07;1.70;;;1.60;;
77262;SDS011;66373;52.334;4.806;2023-04-24T05:34:34;1.65;;;1.55;;
77262;SDS011;66373;52.334;4.806;2023-04-24T05:37:02;1.75;;;1.65;;
77262;SDS011;66373;52.334;4.806;2023-04-24T05:39:33;1.42;;;1.42;;
77262;SDS011;66373;52.334;4.806;2023-04-24T05:42:00;1.45;;;1.38;;
77262;SDS011;66373;52.334;4.806;2023-04-24T05:44:29;1.50;;;1.40;;
77262;SDS011;66373;52.334;4.806;2023-04-24T05:46:58;1.40;;;1.40;;
77262;SDS011;66373;52.334;4.806;2023-04-24T05:49:26;1.77;;;1.67;;
77262;SDS011;66373;52.334;4.806;2023-04-24T05:51:55;1.80;;;1.70;;
77262;SDS011;66373;52.334;4.806;2023-04-24T05:54:22;1.60;;;1.50;;
77262;SDS011;66373;52.334;4.806;2023-04-24T05:56:50;1.48;;;1.48;;
77262;SDS011;66373;52.334;4.806;2023-04-24T05:59:31;1.80;;;1.70;;
77262;SDS011;66373;52.334;4.806;2023-04-24T06:01:58;1.23;;;1.23;;
77262;SDS011;66373;52.334;4.806;2023-04-24T06:04:26;1.70;;;1.60;;
77262;SDS011;66373;52.334;4.806;2023-04-24T06:06:52;1.80;;;1.70;;
77262;SDS011;66373;52.334;4.806;2023-04-24T06:09:21;1.73;;;1.65;;
77262;SDS011;66373;52.334;4.806;2023-04-24T06:11:48;1.67;;;1.60;;
77262;SDS011;66373;52.334;4.806;2023-04-24T06:14:20;1.70;;;1.60;;
77262;SDS011;66373;52.334;4.806;2023-04-24T06:19:37;1.40;;;1.40;;
77262;SDS011;66373;52.334;4.806;2023-04-24T06:22:04;2.28;;;2.03;;
77262;SDS011;66373;52.334;4.806;2023-04-24T06:24:31;2.05;;;1.42;;
77262;SDS011;66373;52.334;4.806;2023-04-24T06:27:00;1.40;;;1.30;;
77262;SDS011;66373;52.334;4.806;2023-04-24T06:29:27;1.50;;;1.50;;
77262;SDS011;66373;52.334;4.806;2023-04-24T06:31:55;1.80;;;1.70;;
77262;SDS011;66373;52.334;4.806;2023-04-24T06:34:23;1.70;;;1.60;;
77262;SDS011;66373;52.334;4.806;2023-04-24T06:36:50;2.22;;;1.45;;
77262;SDS011;66373;52.334;4.806;2023-04-24T06:39:17;1.73;;;1.60;;
77262;SDS011;66373;52.334;4.806;2023-04-24T06:41:44;1.63;;;1.50;;
77262;SDS011;66373;52.334;4.806;2023-04-24T06:44:18;1.60;;;1.50;;
77262;SDS011;66373;52.334;4.806;2023-04-24T06:46:45;2.53;;;1.50;;
77262;SDS011;66373;52.334;4.806;2023-04-24T06:49:12;1.65;;;1.55;;
77262;SDS011;66373;52.334;4.806;2023-04-24T06:51:42;1.70;;;1.60;;
77262;SDS011;66373;52.334;4.806;2023-04-24T06:54:10;1.45;;;1.45;;
77262;SDS011;66373;52.334;4.806;2023-04-24T06:56:37;1.70;;;1.60;;
77262;SDS011;66373;52.334;4.806;2023-04-24T06:59:04;3.72;;;1.65;;
77262;SDS011;66373;52.334;4.806;2023-04-24T07:01:31;1.50;;;1.50;;
77262;SDS011;66373;52.334;4.806;2023-04-24T07:03:58;1.98;;;1.77;;
77262;SDS011;66373;52.334;4.806;2023-04-24T07:06:25;2.35;;;1.80;;
77262;SDS011;66373;52.334;4.806;2023-04-24T07:08:53;1.80;;;1.70;;
77262;SDS011;66373;52.334;4.806;2023-04-24T07:11:21;1.80;;;1.67;;
77262;SDS011;66373;52.334;4.806;2023-04-24T07:13:48;1.85;;;1.75;;
77262;SDS011;66373;52.334;4.806;2023-04-24T07:16:15;1.95;;;1.80;;
77262;SDS011;66373;52.334;4.806;2023-04-24T07:18:42;2.15;;;1.60;;
77262;SDS011;66373;52.334;4.806;2023-04-24T07:21:09;2.00;;;1.90;;
77262;SDS011;66373;52.334;4.806;2023-04-24T07:23:36;1.80;;;1.70;;
77262;SDS011;66373;52.334;4.806;2023-04-24T07:26:05;1.70;;;1.60;;
77262;SDS011;66373;52.334;4.806;2023-04-24T07:28:32;2.47;;;1.85;;
77262;SDS011;66373;52.334;4.806;2023-04-24T07:30:59;2.63;;;1.40;;
77262;SDS011;66373;52.334;4.806;2023-04-24T07:33:26;2.25;;;1.90;;
77262;SDS011;66373;52.334;4.806;2023-04-24T07:35:53;2.63;;;2.00;;
77262;SDS011;66373;52.334;4.806;2023-04-24T07:38:20;1.95;;;1.70;;
77262;SDS011;66373;52.334;4.806;2023-04-24T07:40:47;3.03;;;2.03;;
77262;SDS011;66373;52.334;4.806;2023-04-24T07:43:16;1.73;;;1.63;;
77262;SDS011;66373;52.334;4.806;2023-04-24T07:45:43;2.88;;;1.90;;
77262;SDS011;66373;52.334;4.806;2023-04-24T07:48:10;2.72;;;1.90;;
77262;SDS011;66373;52.334;4.806;2023-04-24T07:50:40;2.28;;;1.85;;
77262;SDS011;66373;52.334;4.806;2023-04-24T07:53:07;3.92;;;1.92;;
77262;SDS011;66373;52.334;4.806;2023-04-24T07:55:34;3.33;;;2.03;;
77262;SDS011;66373;52.334;4.806;2023-04-24T07:58:00;3.22;;;2.35;;
77262;SDS011;66373;52.334;4.806;2023-04-24T08:00:29;2.60;;;2.15;;
77262;SDS011;66373;52.334;4.806;2023-04-24T08:02:56;2.78;;;2.10;;
77262;SDS011;66373;52.334;4.806;2023-04-24T08:05:23;3.75;;;2.30;;
77262;SDS011;66373;52.334;4.806;2023-04-24T08:07:52;3.03;;;1.92;;
77262;SDS011;66373;52.334;4.806;2023-04-24T08:10:20;2.75;;;1.80;;
77262;SDS011;66373;52.334;4.806;2023-04-24T08:12:47;2.55;;;2.10;;
77262;SDS011;66373;52.334;4.806;2023-04-24T08:15:14;3.05;;;2.08;;
77262;SDS011;66373;52.334;4.806;2023-04-24T08:17:43;2.33;;;2.10;;
77262;SDS011;66373;52.334;4.806;2023-04-24T08:20:10;2.28;;;2.10;;
77262;SDS011;66373;52.334;4.806;2023-04-24T08:22:39;2.70;;;1.88;;
77262;SDS011;66373;52.334;4.806;2023-04-24T08:25:07;2.28;;;2.05;;
77262;SDS011;66373;52.334;4.806;2023-04-24T08:27:34;4.90;;;2.30;;
77262;SDS011;66373;52.334;4.806;2023-04-24T08:30:04;2.63;;;2.28;;
77262;SDS011;66373;52.334;4.806;2023-04-24T08:32:33;2.13;;;1.92;;
77262;SDS011;66373;52.334;4.806;2023-04-24T08:35:01;2.28;;;2.08;;
77262;SDS011;66373;52.334;4.806;2023-04-24T08:37:29;2.30;;;1.80;;
77262;SDS011;66373;52.334;4.806;2023-04-24T08:39:56;2.03;;;1.90;;
77262;SDS011;66373;52.334;4.806;2023-04-24T08:42:23;3.50;;;2.22;;
77262;SDS011;66373;52.334;4.806;2023-04-24T08:44:50;3.40;;;2.40;;
77262;SDS011;66373;52.334;4.806;2023-04-24T08:47:17;3.13;;;2.05;;
77262;SDS011;66373;52.334;4.806;2023-04-24T08:49:47;3.10;;;2.20;;
77262;SDS011;66373;52.334;4.806;2023-04-24T08:52:18;3.70;;;2.22;;
77262;SDS011;66373;52.334;4.806;2023-04-24T08:54:45;3.28;;;2.28;;
77262;SDS011;66373;52.334;4.806;2023-04-24T08:57:13;3.45;;;2.05;;
77262;SDS011;66373;52.334;4.806;2023-04-24T08:59:41;2.25;;;2.03;;
77262;SDS011;66373;52.334;4.806;2023-04-24T09:02:09;4.30;;;2.40;;
77262;SDS011;66373;52.334;4.806;2023-04-24T09:04:37;2.40;;;2.20;;
77262;SDS011;66373;52.334;4.806;2023-04-24T09:07:05;3.25;;;2.35;;
77262;SDS011;66373;52.334;4.806;2023-04-24T09:09:34;4.85;;;2.17;;
77262;SDS011;66373;52.334;4.806;2023-04-24T09:14:32;2.30;;;2.10;;
77262;SDS011;66373;52.334;4.806;2023-04-24T09:17:01;3.63;;;2.30;;
77262;SDS011;66373;52.334;4.806;2023-04-24T09:19:28;2.65;;;2.00;;
77262;SDS011;66373;52.334;4.806;2023-04-24T09:21:55;2.30;;;2.13;;
77262;SDS011;66373;52.334;4.806;2023-04-24T09:24:23;4.07;;;2.30;;
77262;SDS011;66373;52.334;4.806;2023-04-24T09:26:57;7.55;;;2.17;;
77262;SDS011;66373;52.334;4.806;2023-04-24T09:29:28;2.50;;;2.30;;
77262;SDS011;66373;52.334;4.806;2023-04-24T09:31:55;3.10;;;2.00;;
77262;SDS011;66373;52.334;4.806;2023-04-24T09:34:23;2.88;;;2.00;;
77262;SDS011;66373;52.334;4.806;2023-04-24T09:36:51;2.13;;;1.92;;
77262;SDS011;66373;52.334;4.806;2023-04-24T09:39:19;3.38;;;2.20;;
77262;SDS011;66373;52.334;4.806;2023-04-24T09:41:47;6.45;;;2.63;;
77262;SDS011;66373;52.334;4.806;2023-04-24T09:44:17;2.60;;;2.17;;
77262;SDS011;66373;52.334;4.806;2023-04-24T09:46:49;3.17;;;2.20;;
77262;SDS011;66373;52.334;4.806;2023-04-24T09:49:22;4.13;;;2.50;;
77262;SDS011;66373;52.334;4.806;2023-04-24T09:51:51;2.60;;;2.20;;
77262;SDS011;66373;52.334;4.806;2023-04-24T09:54:29;3.80;;;2.10;;
77262;SDS011;66373;52.334;4.806;2023-04-24T09:56:56;4.50;;;1.98;;
77262;SDS011;66373;52.334;4.806;2023-04-24T09:59:26;4.72;;;2.15;;
77262;SDS011;66373;52.334;4.806;2023-04-24T10:01:54;2.20;;;2.10;;
77262;SDS011;66373;52.334;4.806;2023-04-24T10:04:25;4.93;;;2.10;;
77262;SDS011;66373;52.334;4.806;2023-04-24T10:06:53;3.58;;;2.30;;
77262;SDS011;66373;52.334;4.806;2023-04-24T10:09:21;4.72;;;2.13;;
77262;SDS011;66373;52.334;4.806;2023-04-24T10:11:52;3.33;;;2.00;;
77262;SDS011;66373;52.334;4.806;2023-04-24T10:14:20;3.55;;;2.15;;
77262;SDS011;66373;52.334;4.806;2023-04-24T10:16:51;2.30;;;1.95;;
77262;SDS011;66373;52.334;4.806;2023-04-24T10:19:20;3.85;;;2.20;;
77262;SDS011;66373;52.334;4.806;2023-04-24T10:21:48;2.83;;;2.33;;
77262;SDS011;66373;52.334;4.806;2023-04-24T10:24:16;3.63;;;2.25;;
77262;SDS011;66373;52.334;4.806;2023-04-24T10:26:45;3.22;;;2.33;;
77262;SDS011;66373;52.334;4.806;2023-04-24T10:29:16;3.97;;;2.38;;
77262;SDS011;66373;52.334;4.806;2023-04-24T10:31:44;4.15;;;2.55;;
77262;SDS011;66373;52.334;4.806;2023-04-24T10:34:14;4.70;;;2.70;;
77262;SDS011;66373;52.334;4.806;2023-04-24T10:36:44;3.67;;;2.35;;
77262;SDS011;66373;52.334;4.806;2023-04-24T10:39:15;4.00;;;2.70;;
77262;SDS011;66373;52.334;4.806;2023-04-24T10:41:43;4.60;;;2.60;;
77262;SDS011;66373;52.334;4.806;2023-04-24T10:44:12;4.13;;;2.40;;
77262;SDS011;66373;52.334;4.806;2023-04-24T10:46:43;3.63;;;2.25;;
77262;SDS011;66373;52.334;4.806;2023-04-24T10:49:10;3.42;;;2.83;;
77262;SDS011;66373;52.334;4.806;2023-04-24T10:51:48;4.72;;;2.25;;
77262;SDS011;66373;52.334;4.806;2023-04-24T10:54:22;3.50;;;2.33;;
77262;SDS011;66373;52.334;4.806;2023-04-24T10:56:50;3.25;;;2.58;;
77262;SDS011;66373;52.334;4.806;2023-04-24T10:59:23;4.47;;;2.30;;
77262;SDS011;66373;52.334;4.806;2023-04-24T11:01:52;4.05;;;2.15;;
77262;SDS011;66373;52.334;4.806;2023-04-24T11:04:30;5.05;;;2.35;;
77262;SDS011;66373;52.334;4.806;2023-04-24T11:06:58;4.47;;;2.40;;
77262;SDS011;66373;52.334;4.806;2023-04-24T11:09:26;3.15;;;2.38;;
77262;SDS011;66373;52.334;4.806;2023-04-24T11:12:02;5.80;;;2.90;;
77262;SDS011;66373;52.334;4.806;2023-04-24T11:17:28;3.55;;;2.10;;
77262;SDS011;66373;52.334;4.806;2023-04-24T11:20:01;3.42;;;2.35;;
77262;SDS011;66373;52.334;4.806;2023-04-24T11:22:33;2.60;;;2.10;;
77262;SDS011;66373;52.334;4.806;2023-04-24T11:25:01;4.53;;;2.67;;
77262;SDS011;66373;52.334;4.806;2023-04-24T11:27:31;3.78;;;2.50;;
77262;SDS011;66373;52.334;4.806;2023-04-24T11:30:06;2.90;;;2.30;;
77262;SDS011;66373;52.334;4.806;2023-04-24T11:32:34;3.63;;;2.53;;
77262;SDS011;66373;52.334;4.806;2023-04-24T11:35:04;4.18;;;2.53;;
77262;SDS011;66373;52.334;4.806;2023-04-24T11:37:34;4.25;;;2.20;;
77262;SDS011;66373;52.334;4.806;2023-04-24T11:40:03;3.88;;;2.10;;
77262;SDS011;66373;52.334;4.806;2023-04-24T11:42:35;3.78;;;2.40;;
77262;SDS011;66373;52.334;4.806;2023-04-24T11:45:07;3.78;;;2.30;;
77262;SDS011;66373;52.334;4.806;2023-04-24T11:47:35;2.38;;;2.10;;
77262;SDS011;66373;52.334;4.806;2023-04-24T11:50:05;2.42;;;2.05;;
77262;SDS011;66373;52.334;4.806;2023-04-24T11:52:37;3.63;;;2.63;;
77262;SDS011;66373;52.334;4.806;2023-04-24T11:55:06;3.60;;;2.35;;
77262;SDS011;66373;52.334;4.806;2023-04-24T11:57:35;2.60;;;2.25;;
77262;SDS011;66373;52.334;4.806;2023-04-24T12:00:03;5.38;;;2.63;;
77262;SDS011;66373;52.334;4.806;2023-04-24T12:02:37;4.63;;;2.17;;
77262;SDS011;66373;52.334;4.806;2023-04-24T12:05:06;4.68;;;2.30;;
77262;SDS011;66373;52.334;4.806;2023-04-24T12:07:39;3.22;;;2.20;;
77262;SDS011;66373;52.334;4.806;2023-04-24T12:10:08;3.50;;;2.30;;
77262;SDS011;66373;52.334;4.806;2023-04-24T12:12:36;3.60;;;2.40;;
77262;SDS011;66373;52.334;4.806;2023-04-24T12:15:06;2.70;;;2.20;;
77262;SDS011;66373;52.334;4.806;2023-04-24T12:17:35;3.30;;;2.13;;
77262;SDS011;66373;52.334;4.806;2023-04-24T12:20:03;3.45;;;2.30;;
77262;SDS011;66373;52.334;4.806;2023-04-24T12:22:43;4.55;;;2.03;;
77262;SDS011;66373;52.334;4.806;2023-04-24T12:25:12;3.65;;;2.20;;
77262;SDS011;66373;52.334;4.806;2023-04-24T12:27:40;3.78;;;2.15;;
77262;SDS011;66373;52.334;4.806;2023-04-24T12:30:12;3.47;;;2.25;;
77262;SDS011;66373;52.334;4.806;2023-04-24T12:32:41;5.10;;;2.55;;
77262;SDS011;66373;52.334;4.806;2023-04-24T12:35:10;2.72;;;2.22;;
77262;SDS011;66373;52.334;4.806;2023-04-24T12:37:37;4.13;;;2.30;;
77262;SDS011;66373;52.334;4.806;2023-04-24T12:40:05;3.75;;;2.40;;
77262;SDS011;66373;52.334;4.806;2023-04-24T12:42:34;3.33;;;2.10;;
77262;SDS011;66373;52.334;4.806;2023-04-24T12:45:03;4.40;;;2.15;;
77262;SDS011;66373;52.334;4.806;2023-04-24T12:47:31;3.30;;;2.20;;
77262;SDS011;66373;52.334;4.806;2023-04-24T12:50:00;3.65;;;2.15;;
77262;SDS011;66373;52.334;4.806;2023-04-24T12:52:29;5.18;;;2.50;;
77262;SDS011;66373;52.334;4.806;2023-04-24T12:54:57;3.53;;;2.30;;
77262;SDS011;66373;52.334;4.806;2023-04-24T12:57:25;4.38;;;2.45;;
77262;SDS011;66373;52.334;4.806;2023-04-24T12:59:53;3.83;;;2.25;;
77262;SDS011;66373;52.334;4.806;2023-04-24T13:02:21;5.65;;;2.20;;
77262;SDS011;66373;52.334;4.806;2023-04-24T13:04:49;3.63;;;2.08;;
77262;SDS011;66373;52.334;4.806;2023-04-24T13:07:16;2.47;;;2.05;;
77262;SDS011;66373;52.334;4.806;2023-04-24T13:09:45;4.47;;;2.60;;
77262;SDS011;66373;52.334;4.806;2023-04-24T13:12:15;3.58;;;2.33;;
77262;SDS011;66373;52.334;4.806;2023-04-24T13:14:42;4.72;;;2.20;;
77262;SDS011;66373;52.334;4.806;2023-04-24T13:17:09;2.53;;;2.20;;
77262;SDS011;66373;52.334;4.806;2023-04-24T13:19:38;6.15;;;2.67;;
77262;SDS011;66373;52.334;4.806;2023-04-24T13:22:06;4.03;;;2.17;;
77262;SDS011;66373;52.334;4.806;2023-04-24T13:24:35;5.18;;;2.40;;
77262;SDS011;66373;52.334;4.806;2023-04-24T13:27:04;3.67;;;2.30;;
77262;SDS011;66373;52.334;4.806;2023-04-24T13:29:31;3.28;;;2.00;;
77262;SDS011;66373;52.334;4.806;2023-04-24T13:31:58;3.55;;;2.55;;
77262;SDS011;66373;52.334;4.806;2023-04-24T13:34:26;2.53;;;2.33;;
77262;SDS011;66373;52.334;4.806;2023-04-24T13:36:54;6.07;;;2.75;;
77262;SDS011;66373;52.334;4.806;2023-04-24T13:39:22;6.88;;;2.50;;
77262;SDS011;66373;52.334;4.806;2023-04-24T13:41:49;3.50;;;1.98;;
77262;SDS011;66373;52.334;4.806;2023-04-24T13:44:18;2.45;;;2.05;;
77262;SDS011;66373;52.334;4.806;2023-04-24T13:46:48;4.47;;;2.25;;
77262;SDS011;66373;52.334;4.806;2023-04-24T13:49:17;3.97;;;2.22;;
77262;SDS011;66373;52.334;4.806;2023-04-24T13:51:45;3.45;;;2.30;;
77262;SDS011;66373;52.334;4.806;2023-04-24T13:54:12;4.03;;;2.42;;
77262;SDS011;66373;52.334;4.806;2023-04-24T13:56:39;4.47;;;2.75;;
77262;SDS011;66373;52.334;4.806;2023-04-24T13:59:13;4.30;;;2.35;;
77262;SDS011;66373;52.334;4.806;2023-04-24T14:01:41;5.43;;;2.10;;
77262;SDS011;66373;52.334;4.806;2023-04-24T14:04:10;2.78;;;2.42;;
77262;SDS011;66373;52.334;4.806;2023-04-24T14:06:40;4.03;;;2.17;;
77262;SDS011;66373;52.334;4.806;2023-04-24T14:09:07;3.17;;;2.20;;
77262;SDS011;66373;52.334;4.806;2023-04-24T14:11:34;3.20;;;2.33;;
77262;SDS011;66373;52.334;4.806;2023-04-24T14:14:02;4.03;;;2.10;;
77262;SDS011;66373;52.334;4.806;2023-04-24T14:16:29;4.03;;;2.30;;
77262;SDS011;66373;52.334;4.806;2023-04-24T14:18:58;4.72;;;2.17;;
77262;SDS011;66373;52.334;4.806;2023-04-24T14:21:25;2.50;;;2.20;;
77262;SDS011;66373;52.334;4.806;2023-04-24T14:23:52;4.78;;;2.50;;
77262;SDS011;66373;52.334;4.806;2023-04-24T14:26:19;3.95;;;2.30;;
77262;SDS011;66373;52.334;4.806;2023-04-24T14:28:47;5.45;;;2.72;;
77262;SDS011;66373;52.334;4.806;2023-04-24T14:31:14;3.03;;;2.25;;
77262;SDS011;66373;52.334;4.806;2023-04-24T14:33:41;5.15;;;2.90;;
77262;SDS011;66373;52.334;4.806;2023-04-24T14:36:09;4.25;;;2.72;;
77262;SDS011;66373;52.334;4.806;2023-04-24T14:38:37;6.18;;;2.63;;
77262;SDS011;66373;52.334;4.806;2023-04-24T14:41:04;3.92;;;2.38;;
77262;SDS011;66373;52.334;4.806;2023-04-24T14:43:34;3.45;;;2.38;;
77262;SDS011;66373;52.334;4.806;2023-04-24T14:46:01;4.10;;;2.22;;
77262;SDS011;66373;52.334;4.806;2023-04-24T14:48:28;5.05;;;2.60;;
77262;SDS011;66373;52.334;4.806;2023-04-24T14:50:55;3.58;;;2.30;;
77262;SDS011;66373;52.334;4.806;2023-04-24T14:53:24;4.10;;;2.10;;
77262;SDS011;66373;52.334;4.806;2023-04-24T14:55:51;3.20;;;2.38;;
77262;SDS011;66373;52.334;4.806;2023-04-24T14:58:18;3.25;;;2.38;;
77262;SDS011;66373;52.334;4.806;2023-04-24T15:00:45;3.92;;;2.97;;
77262;SDS011;66373;52.334;4.806;2023-04-24T15:03:14;6.40;;;2.58;;
77262;SDS011;66373;52.334;4.806;2023-04-24T15:05:42;5.43;;;2.40;;